Time;durP1;ratioP1;P1;durP2;ratioP2;P2;SDS_P1;SDS_P2;PMS_P1;PMS_P2;Temp;Humidity;BMP_temperature;BMP_pressure;BME280_temperature;BME280_humidity;BME280_pressure;Samples;Min_cycle;Max_cycle;Signal;HPM_P1;HPM_P2
2021/06/09 00:01:07;;;;;;;2.03;1.47;;;19.60;59.80;;;;;;5030115;28;20466;-50
2021/06/09 00:03:35;;;;;;;2.63;1.27;;;19.20;59.60;;;;;;5030338;28;20426;-50
2021/06/09 00:06:01;;;;;;;3.20;1.27;;;19.50;59.90;;;;;;5030489;28;20431;-50
2021/06/09 00:08:28;;;;;;;2.13;1.47;;;19.40;59.90;;;;;;5030138;28;20514;-50
2021/06/09 00:10:55;;;;;;;9.10;1.70;;;19.50;60.00;;;;;;5030386;28;20464;-50
2021/06/09 00:13:23;;;;;;;2.67;1.37;;;19.40;60.00;;;;;;5030388;28;20442;-50
2021/06/09 00:15:50;;;;;;;2.10;1.60;;;19.30;60.00;;;;;;5030458;28;20569;-50
2021/06/09 00:18:17;;;;;;;2.60;1.40;;;19.30;60.10;;;;;;5029911;28;20434;-50
2021/06/09 00:20:44;;;;;;;1.70;1.37;;;19.20;60.10;;;;;;5030238;28;20512;-49
2021/06/09 00:23:11;;;;;;;2.93;1.90;;;19.20;60.20;;;;;;5030227;28;20931;-50
2021/06/09 00:25:38;;;;;;;2.10;1.53;;;19.20;60.20;;;;;;5030360;28;20442;-50
2021/06/09 00:28:05;;;;;;;1.40;1.30;;;19.20;60.30;;;;;;5029792;28;20440;-49
2021/06/09 00:30:34;;;;;;;2.13;1.33;;;19.00;60.20;;;;;;5030301;28;20850;-50
2021/06/09 00:33:01;;;;;;;2.13;1.93;;;19.20;60.50;;;;;;5030141;28;20441;-50
2021/06/09 00:35:28;;;;;;;5.70;2.53;;;19.20;60.80;;;;;;5030185;28;20493;-50
2021/06/09 00:37:56;;;;;;;4.90;2.77;;;19.10;60.80;;;;;;5030271;28;20449;-50
2021/06/09 00:40:23;;;;;;;4.00;2.57;;;19.10;60.80;;;;;;5029709;28;20463;-50
2021/06/09 00:43:20;;;;;;;3.30;2.10;;;19.20;61.00;;;;;;5030232;28;20719;-50
2021/06/09 00:45:52;;;;;;;4.20;2.40;;;19.10;61.20;;;;;;4971417;28;20550;-50
2021/06/09 00:48:24;;;;;;;5.97;2.07;;;19.20;61.30;;;;;;5021986;28;20466;-51
2021/06/09 00:50:50;;;;;;;3.07;2.43;;;19.00;61.30;;;;;;5032194;28;21003;-51
2021/06/09 00:53:27;;;;;;;3.00;2.40;;;19.10;61.20;;;;;;5033909;28;20445;-51
2021/06/09 00:55:54;;;;;;;3.80;2.10;;;19.00;61.50;;;;;;5034071;28;20477;-51
2021/06/09 00:58:22;;;;;;;3.37;2.10;;;19.10;61.50;;;;;;5033814;28;20430;-51
2021/06/09 01:00:48;;;;;;;4.70;2.23;;;18.90;61.50;;;;;;5033659;28;20470;-50
2021/06/09 01:03:14;;;;;;;2.17;1.30;;;19.00;61.80;;;;;;5033655;28;20821;-51
2021/06/09 01:05:40;;;;;;;2.43;1.53;;;18.90;61.50;;;;;;5033655;28;20445;-51
2021/06/09 01:08:07;;;;;;;2.47;1.80;;;18.90;61.40;;;;;;5033576;28;20526;-51
2021/06/09 01:10:35;;;;;;;4.43;1.40;;;18.80;61.80;;;;;;5033564;28;20489;-51
2021/06/09 01:13:02;;;;;;;3.57;1.70;;;18.60;62.10;;;;;;5033526;28;20439;-51
2021/06/09 01:15:30;;;;;;;4.17;1.77;;;18.50;62.20;;;;;;5031887;28;20497;-50
2021/06/09 01:17:56;;;;;;;2.50;1.60;;;18.70;62.60;;;;;;5033294;28;20885;-50
2021/06/09 01:20:22;;;;;;;3.03;2.10;;;18.60;63.40;;;;;;5032804;28;20531;-50
2021/06/09 01:22:50;;;;;;;2.93;1.70;;;18.60;62.90;;;;;;5033419;28;20438;-50
2021/06/09 01:25:19;;;;;;;2.30;1.67;;;18.50;63.20;;;;;;5033280;28;20504;-50
2021/06/09 01:27:46;;;;;;;3.23;2.13;;;18.50;63.30;;;;;;5033329;28;20444;-50
2021/06/09 01:30:14;;;;;;;2.37;1.60;;;18.50;63.60;;;;;;5031269;28;20486;-50
2021/06/09 01:32:40;;;;;;;3.67;1.67;;;18.40;63.90;;;;;;5033630;28;20435;-50
2021/06/09 01:35:09;;;;;;;2.10;1.60;;;18.10;63.90;;;;;;5033030;28;20449;-50
2021/06/09 01:37:35;;;;;;;2.97;2.20;;;18.20;64.50;;;;;;5032935;28;20481;-50
2021/06/09 01:40:08;;;;;;;5.57;2.43;;;18.20;64.70;;;;;;5032655;28;20467;-50
2021/06/09 01:42:35;;;;;;;6.13;2.20;;;18.20;64.90;;;;;;5033140;28;20947;-51
2021/06/09 01:45:01;;;;;;;3.87;1.60;;;18.10;65.20;;;;;;5033001;28;21018;-50
2021/06/09 01:47:27;;;;;;;2.80;2.27;;;18.00;65.40;;;;;;5033177;28;20429;-50
2021/06/09 01:49:54;;;;;;;6.47;2.60;;;18.10;65.80;;;;;;5032554;28;20548;-51
2021/06/09 01:52:20;;;;;;;3.00;2.17;;;18.20;66.40;;;;;;5033032;28;20933;-50
2021/06/09 01:54:47;;;;;;;3.57;2.10;;;18.10;66.60;;;;;;5032934;28;20444;-51
2021/06/09 01:57:15;;;;;;;3.70;1.80;;;17.80;66.00;;;;;;5031327;28;20577;-50
2021/06/09 01:59:42;;;;;;;4.03;2.00;;;17.90;66.10;;;;;;5032218;28;20431;-50
2021/06/09 02:02:11;;;;;;;3.83;2.10;;;17.90;66.40;;;;;;5031181;28;20461;-51
2021/06/09 02:04:39;;;;;;;2.47;1.57;;;17.60;65.90;;;;;;5032597;28;20441;-51
2021/06/09 02:07:05;;;;;;;4.23;2.30;;;18.10;66.70;;;;;;5032755;28;20433;-50
2021/06/09 02:09:37;;;;;;;4.43;1.87;;;17.80;66.50;;;;;;5032313;28;20554;-50
2021/06/09 02:12:05;;;;;;;2.70;2.07;;;17.80;66.70;;;;;;5032381;28;20450;-51
2021/06/09 02:14:33;;;;;;;5.20;2.10;;;17.80;67.00;;;;;;5032523;28;20455;-50
2021/06/09 02:16:59;;;;;;;5.80;2.33;;;17.60;67.00;;;;;;5032313;28;20847;-51
2021/06/09 02:19:26;;;;;;;8.20;2.93;;;17.70;67.30;;;;;;5032216;28;20494;-49
2021/06/09 02:21:53;;;;;;;6.70;2.70;;;17.70;67.30;;;;;;5032199;28;20939;-51
2021/06/09 02:24:20;;;;;;;5.13;2.77;;;17.90;68.00;;;;;;5032379;28;20959;-51
2021/06/09 02:26:48;;;;;;;3.87;2.40;;;17.70;68.00;;;;;;5032360;28;20454;-51
2021/06/09 02:29:14;;;;;;;6.10;2.27;;;17.60;68.20;;;;;;5031909;28;20435;-50
2021/06/09 02:31:46;;;;;;;3.90;3.30;;;17.70;68.50;;;;;;5032114;28;20526;-50
2021/06/09 02:34:14;;;;;;;6.97;2.20;;;17.60;68.60;;;;;;5032031;28;20587;-50
2021/06/09 02:36:41;;;;;;;3.10;2.60;;;17.60;68.90;;;;;;5031899;28;20526;-50
2021/06/09 02:39:08;;;;;;;6.67;3.10;;;17.50;69.00;;;;;;5029064;28;20544;-50
2021/06/09 02:41:34;;;;;;;4.40;2.70;;;17.50;69.40;;;;;;5030952;28;20455;-50
2021/06/09 02:44:00;;;;;;;6.07;2.53;;;17.30;69.20;;;;;;5031894;28;20437;-50
2021/06/09 02:46:33;;;;;;;5.10;3.57;;;17.50;69.60;;;;;;5031701;28;20428;-50
2021/06/09 02:49:04;;;;;;;4.10;2.60;;;17.60;70.10;;;;;;5031434;28;20780;-51
2021/06/09 02:51:35;;;;;;;4.33;2.73;;;17.40;70.00;;;;;;5031552;28;20511;-51
2021/06/09 02:54:07;;;;;;;5.17;2.77;;;17.50;70.30;;;;;;5031700;28;20444;-50
2021/06/09 02:56:42;;;;;;;3.33;2.40;;;17.40;70.20;;;;;;5031453;28;20479;-50
2021/06/09 02:59:20;;;;;;;8.80;3.13;;;17.70;70.70;;;;;;5029827;28;20455;-50
2021/06/09 03:01:53;;;;;;;4.80;3.00;;;17.40;70.50;;;;;;5031556;28;20455;-50
2021/06/09 03:04:24;;;;;;;4.37;2.80;;;17.30;70.60;;;;;;5031380;28;20498;-50
2021/06/09 03:06:55;;;;;;;5.27;2.50;;;17.30;70.60;;;;;;5031389;28;20432;-50
2021/06/09 03:09:28;;;;;;;4.30;3.10;;;17.30;70.60;;;;;;5030624;28;20433;-50
2021/06/09 03:12:00;;;;;;;8.50;7.40;;;17.30;70.90;;;;;;5031231;28;20463;-50
2021/06/09 03:17:19;;;;;;;3.43;3.03;;;17.30;71.10;;;;;;5031103;28;20573;-50
2021/06/09 03:19:53;;;;;;;4.93;2.90;;;17.30;71.30;;;;;;5030632;28;20802;-50
2021/06/09 03:22:27;;;;;;;5.27;2.33;;;17.30;71.70;;;;;;5031173;28;20442;-50
2021/06/09 03:24:56;;;;;;;6.10;3.30;;;17.30;71.90;;;;;;5031024;28;20435;-51
2021/06/09 03:27:26;;;;;;;3.87;2.53;;;17.30;71.90;;;;;;5030822;28;20923;-50
2021/06/09 03:29:57;;;;;;;5.30;2.80;;;17.30;72.20;;;;;;5030901;28;20865;-51
2021/06/09 03:32:28;;;;;;;5.73;3.13;;;17.20;72.40;;;;;;5030854;28;20427;-51
2021/06/09 03:35:01;;;;;;;9.80;3.10;;;17.10;72.40;;;;;;5030919;28;20449;-49
2021/06/09 03:37:30;;;;;;;6.13;2.97;;;17.30;72.60;;;;;;5030943;28;20575;-49
2021/06/09 03:39:58;;;;;;;6.83;3.20;;;17.40;73.20;;;;;;5030744;28;20483;-49
2021/06/09 03:42:30;;;;;;;5.70;3.47;;;17.30;73.30;;;;;;5030864;28;20439;-50
2021/06/09 03:44:59;;;;;;;6.43;3.63;;;17.10;73.20;;;;;;5030596;28;20882;-49
2021/06/09 03:47:26;;;;;;;5.43;3.30;;;17.30;73.40;;;;;;5030566;28;20494;-49
2021/06/09 03:49:54;;;;;;;8.80;3.60;;;17.50;73.80;;;;;;5028742;28;20775;-50
2021/06/09 03:52:23;;;;;;;5.03;3.33;;;17.50;74.00;;;;;;5030375;28;20431;-50
2021/06/09 03:54:54;;;;;;;5.87;3.40;;;17.50;73.90;;;;;;5030798;28;20797;-50
2021/06/09 03:57:22;;;;;;;11.93;3.70;;;17.60;74.10;;;;;;5030611;28;20505;-50
2021/06/09 03:59:49;;;;;;;8.60;4.17;;;17.80;74.30;;;;;;5029920;28;20460;-50
2021/06/09 04:02:18;;;;;;;6.03;3.27;;;17.80;74.20;;;;;;5030492;28;20528;-49
2021/06/09 04:04:46;;;;;;;9.50;4.07;;;17.90;74.10;;;;;;5030426;28;20436;-50
2021/06/09 04:07:14;;;;;;;7.13;3.90;;;17.70;73.50;;;;;;5030434;28;20441;-50
2021/06/09 04:09:43;;;;;;;9.90;3.90;;;18.20;73.60;;;;;;5029851;28;20429;-50
2021/06/09 04:12:11;;;;;;;6.10;3.17;;;18.60;73.70;;;;;;5030655;28;20836;-50
2021/06/09 04:14:40;;;;;;;12.93;3.63;;;18.50;73.20;;;;;;5030407;28;20525;-50
2021/06/09 04:17:07;;;;;;;5.60;3.20;;;18.30;72.40;;;;;;5030182;28;20530;-50
2021/06/09 04:19:34;;;;;;;6.87;3.27;;;18.50;72.10;;;;;;5030552;28;20439;-51
2021/06/09 04:22:02;;;;;;;8.30;3.70;;;19.00;72.00;;;;;;5034480;28;20445;-51
2021/06/09 04:24:30;;;;;;;12.87;3.50;;;19.10;71.50;;;;;;5034455;28;20429;-51
2021/06/09 04:26:59;;;;;;;4.07;2.50;;;19.20;71.10;;;;;;5034383;28;20527;-50
2021/06/09 04:29:26;;;;;;;5.40;3.40;;;19.30;70.10;;;;;;5033913;28;20502;-51
2021/06/09 04:31:52;;;;;;;3.60;2.60;;;19.40;69.50;;;;;;5034103;28;20561;-51
2021/06/09 04:34:19;;;;;;;6.97;2.50;;;19.50;68.70;;;;;;5034254;28;20947;-51
2021/06/09 04:36:51;;;;;;;3.60;2.43;;;19.70;68.30;;;;;;5032897;28;20852;-50
2021/06/09 04:39:17;;;;;;;8.87;3.63;;;19.80;68.00;;;;;;5033696;28;20435;-51
2021/06/09 04:41:43;;;;;;;8.77;3.27;;;19.80;67.70;;;;;;5032552;28;20484;-51
2021/06/09 04:44:14;;;;;;;5.40;2.90;;;19.90;67.60;;;;;;5034072;28;20442;-50
2021/06/09 04:46:41;;;;;;;6.03;2.90;;;20.00;67.30;;;;;;5032575;28;20943;-51
2021/06/09 04:49:08;;;;;;;5.30;2.30;;;20.00;66.70;;;;;;5032356;28;20458;-51
2021/06/09 04:51:36;;;;;;;8.30;2.63;;;20.20;66.30;;;;;;5070926;22;20585;-48
2021/06/09 04:54:04;;;;;;;3.67;2.80;;;20.30;65.60;;;;;;5053219;28;20657;-47
2021/06/09 04:56:32;;;;;;;5.10;2.63;;;20.40;65.20;;;;;;5053308;28;20477;-49
2021/06/09 04:59:01;;;;;;;7.00;3.07;;;20.50;64.90;;;;;;5053199;28;20426;-47
2021/06/09 05:01:28;;;;;;;5.90;2.93;;;20.50;65.30;;;;;;5053542;28;20462;-48
2021/06/09 05:03:56;;;;;;;4.00;2.17;;;20.60;64.20;;;;;;5053297;28;20499;-49
2021/06/09 05:06:22;;;;;;;3.60;2.67;;;20.70;64.00;;;;;;5053531;28;20438;-47
2021/06/09 05:08:48;;;;;;;4.07;2.53;;;20.80;63.80;;;;;;5053450;28;20450;-47
2021/06/09 05:11:21;;;;;;;10.77;2.80;;;20.90;63.50;;;;;;5053507;28;20639;-47
2021/06/09 05:13:50;;;;;;;4.20;2.40;;;21.00;63.30;;;;;;5053849;28;20522;-49
2021/06/09 05:16:20;;;;;;;4.20;2.67;;;21.10;63.40;;;;;;5053931;28;20480;-47
2021/06/09 05:18:53;;;;;;;8.23;3.53;;;21.10;63.10;;;;;;5053029;28;20865;-49
2021/06/09 05:21:23;;;;;;;8.13;2.80;;;21.20;62.90;;;;;;5053334;28;20463;-49
2021/06/09 05:23:52;;;;;;;6.00;3.13;;;21.30;62.90;;;;;;5052634;28;20811;-49
2021/06/09 05:26:19;;;;;;;5.33;3.03;;;21.30;62.80;;;;;;5053177;28;20447;-48
2021/06/09 05:28:49;;;;;;;6.03;2.80;;;21.20;62.40;;;;;;5052311;28;20493;-49
2021/06/09 05:31:17;;;;;;;3.60;2.17;;;21.40;62.20;;;;;;5052549;28;20466;-49
2021/06/09 05:33:45;;;;;;;1.87;1.70;;;21.40;62.10;;;;;;5052759;28;20432;-48
2021/06/09 05:36:14;;;;;;;4.80;2.70;;;21.50;62.00;;;;;;5052177;28;20463;-50
2021/06/09 05:38:42;;;;;;;3.17;1.90;;;21.60;61.80;;;;;;5050181;28;20451;-48
2021/06/09 05:41:08;;;;;;;3.50;2.40;;;21.60;61.70;;;;;;5052243;28;20464;-49
2021/06/09 05:43:34;;;;;;;2.63;2.40;;;21.70;61.40;;;;;;5051256;28;20468;-47
2021/06/09 05:46:05;;;;;;;2.67;1.93;;;21.80;61.70;;;;;;5051589;28;20462;-49
2021/06/09 05:48:31;;;;;;;2.20;2.00;;;21.90;60.80;;;;;;5051485;28;20439;-46
2021/06/09 05:50:59;;;;;;;3.30;2.50;;;21.80;60.40;;;;;;5050388;28;49214;-49
2021/06/09 05:53:28;;;;;;;1.70;1.53;;;21.80;60.70;;;;;;5052802;28;20436;-47
2021/06/09 05:55:54;;;;;;;1.97;1.70;;;22.00;60.40;;;;;;5053262;28;20523;-48
2021/06/09 05:58:23;;;;;;;2.53;1.93;;;22.10;60.20;;;;;;5052965;28;20441;-49
2021/06/09 06:00:52;;;;;;;4.23;2.00;;;22.30;59.60;;;;;;5051506;28;21074;-48
2021/06/09 06:03:18;;;;;;;3.80;1.80;;;22.40;59.20;;;;;;5053345;28;20442;-48
2021/06/09 06:05:48;;;;;;;7.47;1.83;;;22.50;59.10;;;;;;5053575;28;20477;-49
2021/06/09 06:08:14;;;;;;;2.37;2.00;;;22.60;58.70;;;;;;5053096;28;20761;-47
2021/06/09 06:10:42;;;;;;;2.20;1.77;;;22.70;58.50;;;;;;5051740;28;20509;-48
2021/06/09 06:13:10;;;;;;;3.27;2.10;;;22.70;58.50;;;;;;5053259;28;20449;-48
2021/06/09 06:15:37;;;;;;;2.40;1.70;;;22.70;58.50;;;;;;5053185;28;20468;-48
2021/06/09 06:18:03;;;;;;;2.50;1.70;;;22.80;58.40;;;;;;5052648;28;20548;-48
2021/06/09 06:20:29;;;;;;;2.30;1.77;;;22.90;58.00;;;;;;5053215;28;20533;-48
2021/06/09 06:22:56;;;;;;;4.10;2.50;;;23.00;57.90;;;;;;5052752;28;20431;-48
2021/06/09 06:25:24;;;;;;;3.33;3.00;;;23.00;57.80;;;;;;5053088;28;20493;-47
2021/06/09 06:27:55;;;;;;;3.57;2.73;;;23.00;58.30;;;;;;5052714;28;20510;-48
2021/06/09 06:30:23;;;;;;;7.40;2.37;;;22.90;58.60;;;;;;5055517;28;20453;-46
2021/06/09 06:32:53;;;;;;;3.20;1.80;;;23.00;58.70;;;;;;5052848;28;20469;-48
2021/06/09 06:35:21;;;;;;;2.97;2.20;;;23.10;58.30;;;;;;5052360;28;20429;-49
2021/06/09 06:37:49;;;;;;;2.23;1.67;;;23.10;58.20;;;;;;5052790;28;20482;-49
2021/06/09 06:40:19;;;;;;;6.30;2.40;;;23.20;58.30;;;;;;5052292;28;20769;-47
2021/06/09 06:42:47;;;;;;;4.30;2.17;;;23.20;58.30;;;;;;5050313;28;20454;-48
2021/06/09 06:45:16;;;;;;;1.67;1.47;;;23.20;58.00;;;;;;5052377;28;20484;-48
2021/06/09 06:47:42;;;;;;;3.87;2.43;;;23.10;57.90;;;;;;5052652;28;20935;-48
2021/06/09 06:50:11;;;;;;;5.10;2.47;;;23.00;58.40;;;;;;5051831;28;20462;-48
2021/06/09 06:52:37;;;;;;;7.53;1.80;;;23.00;58.20;;;;;;5052559;28;20519;-50
2021/06/09 06:55:06;;;;;;;8.30;2.30;;;23.00;58.20;;;;;;5052293;28;20441;-48
2021/06/09 06:57:34;;;;;;;5.80;2.13;;;23.00;58.40;;;;;;5052542;28;20474;-47
2021/06/09 07:00:04;;;;;;;2.20;1.90;;;23.00;58.40;;;;;;5052040;28;20438;-48
2021/06/09 07:02:33;;;;;;;4.27;2.10;;;23.00;58.40;;;;;;5052095;28;20445;-47
2021/06/09 07:05:00;;;;;;;4.20;2.13;;;23.00;58.20;;;;;;5052423;28;20441;-49
2021/06/09 07:07:26;;;;;;;6.13;2.10;;;23.10;58.30;;;;;;5050775;28;20481;-47
2021/06/09 07:09:53;;;;;;;3.63;2.10;;;23.10;58.20;;;;;;5051973;28;20519;-48
2021/06/09 07:12:19;;;;;;;3.30;2.13;;;23.10;58.10;;;;;;5051902;28;20505;-48
2021/06/09 07:14:46;;;;;;;3.80;2.13;;;23.10;57.70;;;;;;5052115;28;20893;-50
2021/06/09 07:17:14;;;;;;;3.03;2.33;;;23.20;57.70;;;;;;5052068;28;20518;-47
2021/06/09 07:19:42;;;;;;;3.70;2.30;;;23.10;57.80;;;;;;5051719;28;20435;-47
2021/06/09 07:22:08;;;;;;;4.40;2.13;;;23.10;57.90;;;;;;5051820;28;20908;-47
2021/06/09 07:24:36;;;;;;;2.80;2.43;;;23.10;57.90;;;;;;5051798;28;20797;-49
2021/06/09 07:27:03;;;;;;;6.17;2.10;;;23.10;57.90;;;;;;5051846;28;20441;-47
2021/06/09 07:29:30;;;;;;;2.60;1.73;;;23.10;57.80;;;;;;5051472;28;20539;-50
2021/06/09 07:31:56;;;;;;;5.57;2.17;;;23.20;57.80;;;;;;5051645;28;20985;-48
2021/06/09 07:34:23;;;;;;;7.17;1.90;;;23.20;57.70;;;;;;5051518;28;20434;-48
2021/06/09 07:36:54;;;;;;;2.10;1.63;;;23.20;57.60;;;;;;5051524;28;20482;-49
2021/06/09 07:39:26;;;;;;;5.87;2.20;;;23.20;57.50;;;;;;5051332;28;20430;-47
2021/06/09 07:41:54;;;;;;;8.20;2.50;;;23.30;57.70;;;;;;5050530;28;20876;-48
2021/06/09 07:44:23;;;;;;;5.50;1.87;;;23.30;57.60;;;;;;5054041;28;20955;-48
2021/06/09 07:46:51;;;;;;;5.00;1.60;;;23.40;57.50;;;;;;5051529;28;20816;-48
2021/06/09 07:49:20;;;;;;;8.53;2.53;;;23.30;57.50;;;;;;5051041;28;20457;-48
2021/06/09 07:51:47;;;;;;;3.70;2.30;;;23.30;57.60;;;;;;5051319;28;21035;-49
2021/06/09 07:54:16;;;;;;;2.80;2.30;;;23.30;57.40;;;;;;5051326;28;20442;-48
2021/06/09 07:56:43;;;;;;;4.50;1.60;;;23.30;57.40;;;;;;5051167;28;20932;-47
2021/06/09 07:59:13;;;;;;;3.23;1.73;;;23.30;57.50;;;;;;5051197;28;20439;-47
2021/06/09 08:01:42;;;;;;;4.90;2.50;;;23.30;57.50;;;;;;5051215;28;20461;-48
2021/06/09 08:04:09;;;;;;;3.80;2.20;;;23.30;57.40;;;;;;5051240;28;20451;-48
2021/06/09 08:06:36;;;;;;;3.60;2.00;;;23.30;57.30;;;;;;5051115;28;20522;-48
2021/06/09 08:09:04;;;;;;;6.20;1.80;;;23.30;57.20;;;;;;5051279;28;20438;-48
2021/06/09 08:11:32;;;;;;;6.20;1.97;;;23.30;57.10;;;;;;5049795;28;20528;-49
2021/06/09 08:14:00;;;;;;;2.80;1.90;;;23.30;57.00;;;;;;5051555;28;20461;-50
2021/06/09 08:16:28;;;;;;;3.20;1.50;;;23.30;56.90;;;;;;5051055;28;20495;-47
2021/06/09 08:18:55;;;;;;;12.97;1.90;;;23.30;56.50;;;;;;5050954;28;20463;-47
2021/06/09 08:21:25;;;;;;;3.53;1.50;;;23.30;56.50;;;;;;5051343;28;20491;-49
2021/06/09 08:23:52;;;;;;;5.43;1.57;;;23.20;55.70;;;;;;5051209;28;20441;-47
2021/06/09 08:26:20;;;;;;;2.93;2.00;;;23.20;55.50;;;;;;5051250;28;20652;-47
2021/06/09 08:28:48;;;;;;;6.57;2.03;;;23.10;55.00;;;;;;5050624;28;20433;-48
2021/06/09 08:31:16;;;;;;;5.33;2.57;;;23.10;54.50;;;;;;5050973;28;20843;-48
2021/06/09 08:33:42;;;;;;;8.30;2.10;;;23.10;55.10;;;;;;5051006;28;20438;-47
2021/06/09 08:36:11;;;;;;;1.67;1.57;;;23.20;55.50;;;;;;5050919;28;20451;-48
2021/06/09 08:38:38;;;;;;;7.00;1.93;;;23.20;55.50;;;;;;5051249;28;20991;-46
2021/06/09 08:41:05;;;;;;;2.20;1.60;;;23.30;55.60;;;;;;5050962;28;20459;-47
2021/06/09 08:43:33;;;;;;;17.03;2.97;;;23.30;55.60;;;;;;5051126;28;20953;-49
2021/06/09 08:46:02;;;;;;;3.40;1.60;;;23.30;55.90;;;;;;5050915;28;20538;-49
2021/06/09 08:48:29;;;;;;;6.37;2.53;;;23.30;55.90;;;;;;5050474;28;20438;-48
2021/06/09 08:50:57;;;;;;;5.07;1.67;;;23.40;55.60;;;;;;5050874;28;21039;-47
2021/06/09 08:53:25;;;;;;;3.93;1.93;;;23.40;55.50;;;;;;5050996;28;20442;-47
2021/06/09 08:55:51;;;;;;;5.77;1.83;;;23.40;55.20;;;;;;5051040;28;20528;-48
2021/06/09 08:58:17;;;;;;;5.60;2.13;;;23.50;55.50;;;;;;5051670;28;20517;-47
2021/06/09 09:00:45;;;;;;;5.53;2.83;;;23.40;55.40;;;;;;5051178;28;20953;-49
2021/06/09 09:03:13;;;;;;;9.10;2.30;;;23.50;55.50;;;;;;5051197;28;20447;-47
2021/06/09 09:05:39;;;;;;;14.40;2.10;;;23.50;55.40;;;;;;5051381;28;20431;-48
2021/06/09 09:08:06;;;;;;;7.23;1.90;;;23.40;55.10;;;;;;5054270;28;20427;-49
2021/06/09 09:10:34;;;;;;;10.30;1.73;;;23.40;55.40;;;;;;5054415;28;20466;-47
2021/06/09 09:13:00;;;;;;;2.80;1.53;;;23.50;55.10;;;;;;5054074;28;20890;-47
2021/06/09 09:15:28;;;;;;;1.90;1.70;;;23.50;55.00;;;;;;5054680;28;20451;-48
2021/06/09 09:17:55;;;;;;;8.03;2.00;;;23.50;55.00;;;;;;5054285;28;20912;-47
2021/06/09 09:20:27;;;;;;;3.83;1.80;;;23.50;54.80;;;;;;5053978;28;20819;-47
2021/06/09 09:22:57;;;;;;;14.43;3.10;;;23.60;54.60;;;;;;5053118;28;20832;-48
2021/06/09 09:25:26;;;;;;;8.10;1.87;;;23.60;54.60;;;;;;5054357;28;20440;-48
2021/06/09 09:27:54;;;;;;;9.70;2.97;;;23.60;54.70;;;;;;5054356;28;20962;-47
2021/06/09 09:30:22;;;;;;;6.23;2.07;;;23.60;54.80;;;;;;5053830;28;20458;-48
2021/06/09 09:33:01;;;;;;;19.07;6.50;;;23.60;54.90;;;;;;5054170;28;20530;-47
2021/06/09 09:35:29;;;;;;;2.70;1.70;;;23.70;54.90;;;;;;5054208;28;20810;-47
2021/06/09 09:38:14;;;;;;;4.23;1.90;;;23.50;54.40;;;;;;5053604;28;20560;-48
2021/06/09 09:40:58;;;;;;;4.73;2.00;;;23.70;54.20;;;;;;5053891;28;20457;-47
2021/06/09 09:43:44;;;;;;;4.50;2.33;;;23.70;53.90;;;;;;5053877;28;20440;-48
2021/06/09 09:46:13;;;;;;;3.50;1.80;;;23.70;53.90;;;;;;5053627;28;20521;-47
2021/06/09 09:48:41;;;;;;;2.40;1.80;;;23.70;54.00;;;;;;5054511;28;20452;-49
2021/06/09 09:51:10;;;;;;;2.73;1.40;;;23.70;53.80;;;;;;5054821;28;20943;-48
2021/06/09 09:53:36;;;;;;;4.17;2.20;;;23.80;53.70;;;;;;5054357;28;20513;-48
2021/06/09 09:56:08;;;;;;;4.73;2.10;;;23.80;53.70;;;;;;5054482;28;20470;-48
2021/06/09 09:58:36;;;;;;;3.10;1.50;;;23.90;54.10;;;;;;5053720;28;20507;-49
2021/06/09 10:01:10;;;;;;;41.53;8.73;;;24.00;53.60;;;;;;5054503;28;20826;-50
2021/06/09 10:03:37;;;;;;;3.90;2.13;;;23.90;53.70;;;;;;5053169;28;20529;-49
2021/06/09 10:06:18;;;;;;;3.10;1.80;;;23.90;54.00;;;;;;5053869;28;20438;-49
2021/06/09 10:08:44;;;;;;;3.73;2.10;;;24.00;54.20;;;;;;5053668;28;20466;-48
2021/06/09 10:11:11;;;;;;;2.77;2.27;;;23.90;53.90;;;;;;5052461;28;20496;-49
2021/06/09 10:13:37;;;;;;;10.30;2.90;;;23.90;53.90;;;;;;5053114;28;20456;-48
2021/06/09 10:16:03;;;;;;;4.50;2.43;;;23.90;53.90;;;;;;5053244;28;20448;-48
2021/06/09 10:18:29;;;;;;;70.07;11.80;;;24.00;54.00;;;;;;5050444;28;20485;-50
2021/06/09 10:20:56;;;;;;;6.60;2.87;;;24.10;54.20;;;;;;5052796;28;20473;-49
2021/06/09 10:23:35;;;;;;;4.33;3.10;;;24.10;54.30;;;;;;5053050;28;20438;-47
2021/06/09 10:26:05;;;;;;;27.93;5.90;;;24.10;53.50;;;;;;5052904;28;20442;-48
2021/06/09 10:28:57;;;;;;;9.90;3.60;;;24.10;53.50;;;;;;5052368;28;20502;-49
2021/06/09 10:31:24;;;;;;;1.90;1.60;;;24.10;53.40;;;;;;5052980;28;20480;-49
2021/06/09 10:33:51;;;;;;;4.20;2.07;;;24.10;53.90;;;;;;5053270;28;20931;-46
2021/06/09 10:36:17;;;;;;;2.00;1.77;;;24.10;53.40;;;;;;5052757;28;20804;-47
2021/06/09 10:38:46;;;;;;;6.40;2.77;;;24.10;53.30;;;;;;5052023;28;20462;-48
2021/06/09 10:41:14;;;;;;;2.67;1.70;;;24.20;53.30;;;;;;5051247;28;20688;-47
2021/06/09 10:43:42;;;;;;;3.03;1.73;;;24.20;52.90;;;;;;5051067;28;20453;-47
2021/06/09 10:46:10;;;;;;;5.60;4.10;;;24.30;52.80;;;;;;5052336;28;20455;-47
2021/06/09 10:48:39;;;;;;;2.90;1.90;;;24.30;52.80;;;;;;5050513;28;20447;-47
2021/06/09 10:51:08;;;;;;;6.43;1.90;;;24.30;52.80;;;;;;5070027;22;20497;-50
2021/06/09 10:53:35;;;;;;;3.07;2.10;;;24.30;52.70;;;;;;5031326;28;20446;-51
2021/06/09 10:56:04;;;;;;;2.30;1.93;;;24.30;52.50;;;;;;5031198;28;20428;-52
2021/06/09 10:58:30;;;;;;;4.20;2.03;;;24.40;52.50;;;;;;5030602;28;20483;-51
2021/06/09 11:00:57;;;;;;;2.73;1.90;;;24.40;52.50;;;;;;5030682;28;20976;-53
2021/06/09 11:03:23;;;;;;;3.30;1.80;;;24.40;52.80;;;;;;5029861;28;20447;-52
2021/06/09 11:05:50;;;;;;;2.23;1.80;;;24.50;53.10;;;;;;5030770;28;20931;-52
2021/06/09 11:08:17;;;;;;;3.63;1.70;;;24.40;52.70;;;;;;5028722;28;20442;-52
2021/06/09 11:10:45;;;;;;;4.93;2.00;;;24.40;53.00;;;;;;5030992;28;20495;-51
2021/06/09 11:13:27;;;;;;;2.60;2.30;;;24.50;52.50;;;;;;5030788;28;20443;-51
2021/06/09 11:16:04;;;;;;;5.03;2.80;;;24.50;52.30;;;;;;5030883;28;20428;-52
2021/06/09 11:18:35;;;;;;;6.70;2.40;;;24.60;52.30;;;;;;5030750;28;20592;-51
2021/06/09 11:21:02;;;;;;;5.03;2.00;;;24.50;52.00;;;;;;5030751;28;20454;-52
2021/06/09 11:23:30;;;;;;;4.97;2.20;;;24.50;52.30;;;;;;5030373;28;20471;-52
2021/06/09 11:25:57;;;;;;;4.50;2.13;;;24.60;52.30;;;;;;5030425;28;20435;-52
2021/06/09 11:28:39;;;;;;;3.53;2.17;;;24.60;52.20;;;;;;5029969;28;20463;-52
2021/06/09 11:31:07;;;;;;;4.13;1.80;;;24.70;52.20;;;;;;5030884;28;20458;-51
2021/06/09 11:33:45;;;;;;;3.30;3.00;;;25.20;52.20;;;;;;5030326;28;20819;-52
2021/06/09 11:36:27;;;;;;;4.67;1.97;;;24.90;51.10;;;;;;5030553;28;20447;-52
2021/06/09 11:38:55;;;;;;;8.83;2.53;;;24.90;51.10;;;;;;5029826;28;20435;-51
2021/06/09 11:41:22;;;;;;;4.17;2.23;;;25.00;50.90;;;;;;5030253;28;21010;-52
2021/06/09 11:43:51;;;;;;;5.10;2.00;;;25.10;50.70;;;;;;5030235;28;20928;-52
2021/06/09 11:46:22;;;;;;;4.20;2.00;;;25.10;50.80;;;;;;5030372;28;20785;-52
2021/06/09 11:48:53;;;;;;;2.30;1.70;;;25.20;50.70;;;;;;5030035;28;20526;-52
2021/06/09 11:51:26;;;;;;;3.93;1.93;;;25.20;50.70;;;;;;5029876;28;20975;-52
2021/06/09 11:53:56;;;;;;;3.57;1.97;;;25.30;50.40;;;;;;5030533;28;20530;-52
2021/06/09 11:56:26;;;;;;;5.20;1.90;;;25.30;50.40;;;;;;5030290;28;20439;-52
2021/06/09 11:58:57;;;;;;;3.40;1.60;;;25.30;50.60;;;;;;5029926;28;20534;-52
2021/06/09 12:01:24;;;;;;;4.50;1.73;;;25.30;50.70;;;;;;5030661;28;20508;-52
2021/06/09 12:04:22;;;;;;;2.37;1.80;;;25.40;50.50;;;;;;5030273;28;20522;-52
2021/06/09 12:06:51;;;;;;;2.07;1.47;;;25.50;50.10;;;;;;4996164;28;20456;-52
2021/06/09 12:09:19;;;;;;;2.73;1.60;;;25.50;50.20;;;;;;5029934;28;20509;-52
2021/06/09 12:11:47;;;;;;;3.90;1.70;;;25.50;50.60;;;;;;5030293;28;20604;-50
2021/06/09 12:14:23;;;;;;;3.63;2.13;;;25.50;50.20;;;;;;5030529;28;20462;-52
2021/06/09 12:16:52;;;;;;;7.93;1.80;;;25.60;49.90;;;;;;5030821;28;20475;-52
2021/06/09 12:19:29;;;;;;;2.00;1.60;;;25.60;49.80;;;;;;5029972;28;20447;-52
2021/06/09 12:22:02;;;;;;;3.27;1.67;;;25.60;49.70;;;;;;5030110;28;20483;-52
2021/06/09 12:24:28;;;;;;;3.97;1.87;;;25.70;50.20;;;;;;5030098;28;20432;-52
2021/06/09 12:26:58;;;;;;;4.33;2.70;;;25.70;49.90;;;;;;5030633;28;20825;-52
2021/06/09 12:29:30;;;;;;;3.53;1.80;;;25.80;50.00;;;;;;5030073;28;20494;-52
2021/06/09 12:31:58;;;;;;;3.23;1.70;;;25.90;50.00;;;;;;5029880;28;21057;-53
2021/06/09 12:34:30;;;;;;;3.20;2.10;;;25.90;49.70;;;;;;5030036;28;20490;-53
2021/06/09 12:37:02;;;;;;;6.07;2.20;;;25.90;49.40;;;;;;5029873;28;20951;-52
2021/06/09 12:39:28;;;;;;;3.40;1.80;;;25.80;49.40;;;;;;5029783;28;20478;-52
2021/06/09 12:41:55;;;;;;;2.40;1.80;;;25.80;49.50;;;;;;5032571;28;20516;-52
2021/06/09 12:44:21;;;;;;;2.37;1.93;;;25.80;49.40;;;;;;5034141;28;20443;-51
2021/06/09 12:46:55;;;;;;;6.33;2.73;;;25.80;49.30;;;;;;5032337;28;20455;-53
2021/06/09 12:49:27;;;;;;;4.80;1.80;;;25.90;49.30;;;;;;5033589;28;20435;-52
2021/06/09 12:52:06;;;;;;;4.23;1.90;;;25.90;49.30;;;;;;5033546;28;20481;-52
2021/06/09 12:54:33;;;;;;;4.10;1.57;;;25.90;49.20;;;;;;5033729;28;20935;-52
2021/06/09 12:56:59;;;;;;;1.97;1.70;;;25.90;49.40;;;;;;5033881;28;20483;-52